createdAt,value
2019-06-27T00:01:01.828Z,57.00
2019-06-27T00:03:34.488Z,57.00
2019-06-27T00:06:06.724Z,57.04
2019-06-27T00:08:43.878Z,57.10
2019-06-27T00:11:16.144Z,57.22
2019-06-27T00:13:48.385Z,57.34
2019-06-27T00:16:20.772Z,57.46
2019-06-27T00:18:53.477Z,57.68
2019-06-27T00:21:25.976Z,57.74
2019-06-27T00:23:58.491Z,57.84
2019-06-27T00:26:30.745Z,57.92
2019-06-27T00:29:04.064Z,58.04
2019-06-27T00:31:36.299Z,58.19
2019-06-27T00:34:08.648Z,58.39
2019-06-27T00:36:41.775Z,58.65
2019-06-27T00:39:14.008Z,58.91
2019-06-27T00:41:46.169Z,59.11
2019-06-27T00:44:27.204Z,59.22
2019-06-27T00:47:01.430Z,59.38
2019-06-27T00:49:33.777Z,59.55
2019-06-27T00:52:07.235Z,59.78
2019-06-27T00:54:39.880Z,59.50
2019-06-27T00:57:14.399Z,59.21
2019-06-27T00:59:47.240Z,59.14
2019-06-27T01:02:26.428Z,58.95
2019-06-27T01:05:04.831Z,58.93
2019-06-27T01:07:37.134Z,59.33
2019-06-27T01:10:12.164Z,59.81
2019-06-27T01:12:44.515Z,60.16
2019-06-27T01:15:19.232Z,60.54
2019-06-27T01:17:51.611Z,60.65
2019-06-27T01:20:23.959Z,60.96
2019-06-27T01:22:56.235Z,61.16
2019-06-27T01:25:29.766Z,61.08
2019-06-27T01:28:02.058Z,61.14
2019-06-27T01:30:34.335Z,61.19
2019-06-27T01:33:06.710Z,60.83
2019-06-27T01:35:38.976Z,60.63
2019-06-27T01:38:11.348Z,60.75
2019-06-27T01:40:43.546Z,60.78
2019-06-27T01:43:23.391Z,61.09
2019-06-27T01:45:58.270Z,61.09
2019-06-27T01:48:32.209Z,61.12
2019-06-27T01:51:04.382Z,61.03
2019-06-27T01:53:36.673Z,61.02
2019-06-27T01:56:08.890Z,60.78
2019-06-27T01:58:41.852Z,60.85
2019-06-27T02:04:39.506Z,60.97
2019-06-27T02:07:16.836Z,61.13
2019-06-27T02:09:54.195Z,61.26
2019-06-27T02:12:31.448Z,61.30
2019-06-27T02:15:08.107Z,61.28
2019-06-27T02:17:45.445Z,61.38
2019-06-27T02:20:17.722Z,61.67
2019-06-27T02:22:50.087Z,61.78
2019-06-27T02:25:23.649Z,61.97
2019-06-27T02:28:03.764Z,62.11
2019-06-27T02:30:41.636Z,62.05
2019-06-27T02:33:14.020Z,61.95
2019-06-27T02:35:46.311Z,62.02
2019-06-27T02:38:18.707Z,61.90
2019-06-27T02:40:51.005Z,61.74
2019-06-27T02:43:23.369Z,61.56
2019-06-27T02:45:55.589Z,61.57
2019-06-27T02:48:27.971Z,61.29
2019-06-27T02:51:00.266Z,61.24
2019-06-27T02:53:32.644Z,61.23
2019-06-27T02:56:04.866Z,61.17
2019-06-27T02:58:37.230Z,61.39
2019-06-27T03:01:09.625Z,61.68
2019-06-27T03:03:42.128Z,61.95
2019-06-27T03:06:14.519Z,61.85
2019-06-27T03:08:46.795Z,61.60
2019-06-27T03:11:18.976Z,61.26
2019-06-27T03:13:51.243Z,61.14
2019-06-27T03:16:23.454Z,61.32
2019-06-27T03:18:55.701Z,61.80
2019-06-27T03:21:27.928Z,61.72
2019-06-27T03:24:00.189Z,61.97
2019-06-27T03:26:32.440Z,62.01
2019-06-27T03:29:04.702Z,61.86
2019-06-27T03:31:36.954Z,62.16
2019-06-27T03:34:09.306Z,62.40
2019-06-27T03:36:41.514Z,62.52
2019-06-27T03:39:13.728Z,62.62
2019-06-27T03:41:45.964Z,62.66
2019-06-27T03:44:18.220Z,62.66
2019-06-27T03:46:50.405Z,62.90
2019-06-27T03:49:22.620Z,63.13
2019-06-27T03:51:54.901Z,63.05
2019-06-27T03:54:27.090Z,63.52
2019-06-27T03:56:59.361Z,62.90
2019-06-27T03:59:31.605Z,62.09
2019-06-27T04:02:03.828Z,63.20
2019-06-27T04:04:41.033Z,64.13
2019-06-27T04:07:18.087Z,64.82
2019-06-27T04:09:50.285Z,65.40
2019-06-27T04:12:22.915Z,65.87
2019-06-27T04:14:55.260Z,66.76
2019-06-27T04:17:27.593Z,66.76
2019-06-27T04:19:59.856Z,66.42
2019-06-27T04:22:32.191Z,66.77
2019-06-27T04:25:04.598Z,66.82
2019-06-27T04:27:36.909Z,67.27
2019-06-27T04:30:08.789Z,67.77
2019-06-27T04:32:41.057Z,67.82
2019-06-27T04:35:14.751Z,68.03
2019-06-27T04:37:48.177Z,67.45
2019-06-27T04:40:23.244Z,67.62
2019-06-27T04:42:55.470Z,68.11
2019-06-27T04:45:27.643Z,68.72
2019-06-27T04:47:59.925Z,68.80
2019-06-27T04:50:33.113Z,69.11
2019-06-27T04:53:05.393Z,69.68
2019-06-27T04:55:37.627Z,69.66
2019-06-27T04:58:09.960Z,68.92
2019-06-27T05:00:42.235Z,68.79
2019-06-27T05:03:15.521Z,68.66
2019-06-27T05:05:47.806Z,68.87
2019-06-27T05:08:20.061Z,68.29
2019-06-27T05:10:52.271Z,68.47
2019-06-27T05:13:24.784Z,68.28
2019-06-27T05:15:57.317Z,68.66
2019-06-27T05:18:29.643Z,67.91
2019-06-27T05:21:01.835Z,67.75
2019-06-27T05:23:34.195Z,67.50
2019-06-27T05:26:06.467Z,67.61
2019-06-27T05:28:38.767Z,66.91
2019-06-27T05:31:11.281Z,66.52
2019-06-27T05:33:43.767Z,66.17
2019-06-27T05:36:16.064Z,65.61
2019-06-27T05:38:48.367Z,65.41
2019-06-27T05:41:20.535Z,65.23
2019-06-27T05:43:52.895Z,65.33
2019-06-27T05:46:25.125Z,65.26
2019-06-27T05:48:57.420Z,65.14
2019-06-27T05:51:29.671Z,64.53
2019-06-27T05:54:01.952Z,63.97
2019-06-27T05:56:34.387Z,63.58
2019-06-27T05:59:06.654Z,63.29
2019-06-27T06:01:38.864Z,63.25
2019-06-27T06:04:11.151Z,62.94
2019-06-27T06:06:43.365Z,62.52
2019-06-27T06:09:15.652Z,62.27
2019-06-27T06:11:47.814Z,61.94
2019-06-27T06:14:20.041Z,62.03
2019-06-27T06:16:52.264Z,61.57
2019-06-27T06:19:24.526Z,61.19
2019-06-27T06:21:56.755Z,61.42
2019-06-27T06:24:29.080Z,61.09
2019-06-27T06:27:01.295Z,61.01
2019-06-27T06:29:33.683Z,61.01
2019-06-27T06:32:06.683Z,61.50
2019-06-27T06:34:39.136Z,60.78
2019-06-27T06:37:11.405Z,59.55
2019-06-27T06:39:43.670Z,59.38
2019-06-27T06:42:15.830Z,59.49
2019-06-27T06:44:48.818Z,59.24
2019-06-27T06:47:21.022Z,58.81
2019-06-27T06:49:53.286Z,59.24
2019-06-27T06:52:25.469Z,58.63
2019-06-27T06:54:58.546Z,58.61
2019-06-27T06:57:30.696Z,58.81
2019-06-27T07:00:05.467Z,58.19
2019-06-27T07:02:37.808Z,58.15
2019-06-27T07:05:10.613Z,58.09
2019-06-27T07:07:43.258Z,58.11
2019-06-27T07:10:16.024Z,57.85
2019-06-27T07:12:48.249Z,58.37
2019-06-27T07:15:23.351Z,58.04
2019-06-27T07:17:56.544Z,57.75
2019-06-27T07:20:28.897Z,57.17
2019-06-27T07:23:01.143Z,56.79
2019-06-27T07:25:33.588Z,56.58
2019-06-27T07:28:05.820Z,56.44
2019-06-27T07:30:38.036Z,56.46
2019-06-27T07:33:10.466Z,57.32
2019-06-27T07:35:42.819Z,57.07
2019-06-27T07:38:14.995Z,56.47
2019-06-27T07:40:47.257Z,55.05
2019-06-27T07:43:19.475Z,55.27
2019-06-27T07:45:51.716Z,54.52
2019-06-27T07:48:23.946Z,55.21
2019-06-27T07:50:56.235Z,54.62
2019-06-27T07:53:28.435Z,53.51
2019-06-27T07:56:02.219Z,53.96
2019-06-27T07:58:34.377Z,52.73
2019-06-27T08:01:06.576Z,52.34
2019-06-27T08:03:38.783Z,52.28
2019-06-27T08:06:11.029Z,52.37
2019-06-27T08:08:43.284Z,52.00
2019-06-27T08:11:15.533Z,52.00
2019-06-27T08:13:47.697Z,51.30
2019-06-27T08:16:19.920Z,52.61
2019-06-27T08:18:52.163Z,52.23
2019-06-27T08:21:24.496Z,52.14
2019-06-27T08:23:56.656Z,52.44
2019-06-27T08:26:29.372Z,52.03
2019-06-27T08:29:01.628Z,51.74
2019-06-27T08:31:47.455Z,50.21
2019-06-27T08:34:23.181Z,50.19
2019-06-27T08:36:55.404Z,50.09
2019-06-27T08:39:27.583Z,49.85
2019-06-27T08:41:59.811Z,49.56
2019-06-27T08:44:31.985Z,48.40
2019-06-27T08:47:04.252Z,47.15
2019-06-27T08:49:36.497Z,46.91
2019-06-27T08:52:08.790Z,46.91
2019-06-27T08:54:40.988Z,46.73
2019-06-27T08:57:20.420Z,47.61
2019-06-27T08:59:52.603Z,46.69
2019-06-27T09:02:24.872Z,47.63
2019-06-27T09:04:57.103Z,46.78
2019-06-27T09:07:29.319Z,45.85
2019-06-27T09:10:01.617Z,44.60
2019-06-27T09:12:35.892Z,43.38
2019-06-27T09:15:07.755Z,44.69
2019-06-27T09:17:40.213Z,45.34
2019-06-27T09:20:12.408Z,45.06
2019-06-27T09:22:44.658Z,43.48
2019-06-27T09:25:16.937Z,44.04
2019-06-27T09:27:49.234Z,41.63
2019-06-27T09:30:22.457Z,41.57
2019-06-27T09:32:54.778Z,42.01
2019-06-27T09:35:27.029Z,40.81
2019-06-27T09:37:59.422Z,41.34
2019-06-27T09:40:37.984Z,39.79
2019-06-27T09:43:10.289Z,40.95
2019-06-27T09:45:42.532Z,38.79
2019-06-27T09:48:14.787Z,39.86
2019-06-27T09:50:46.996Z,38.68
2019-06-27T09:53:19.382Z,38.73
2019-06-27T09:55:51.603Z,38.16
2019-06-27T10:01:40.854Z,38.97
2019-06-27T10:04:15.551Z,37.67
2019-06-27T10:06:47.773Z,37.60
2019-06-27T10:09:20.167Z,36.97
2019-06-27T10:11:53.357Z,36.17
2019-06-27T10:14:25.856Z,36.45
2019-06-27T10:16:58.791Z,37.15
2019-06-27T10:19:32.034Z,37.93
2019-06-27T10:22:04.326Z,36.40
2019-06-27T10:24:56.352Z,34.84
2019-06-27T10:27:43.671Z,36.58
2019-06-27T10:30:25.924Z,36.37
2019-06-27T10:33:00.068Z,36.13
2019-06-27T10:35:32.763Z,35.86
2019-06-27T10:38:04.980Z,36.42
2019-06-27T10:40:37.328Z,35.88
2019-06-27T10:43:09.543Z,35.75
2019-06-27T10:45:41.853Z,35.71
2019-06-27T10:48:14.137Z,35.44
2019-06-27T10:50:46.700Z,35.47
2019-06-27T10:53:18.983Z,33.90
2019-06-27T10:55:51.214Z,33.83
2019-06-27T10:58:23.425Z,34.06
2019-06-27T11:00:55.708Z,32.69
2019-06-27T11:03:27.891Z,30.70
2019-06-27T11:06:00.189Z,31.69
2019-06-27T11:08:32.379Z,32.27
2019-06-27T11:11:04.679Z,32.53
2019-06-27T11:13:36.896Z,31.36
2019-06-27T11:16:09.189Z,29.95
2019-06-27T11:18:46.445Z,30.07
2019-06-27T11:21:22.456Z,30.13
2019-06-27T11:23:55.163Z,31.45
2019-06-27T11:26:27.892Z,31.43
2019-06-27T11:29:00.701Z,30.62
2019-06-27T11:31:33.037Z,30.64
2019-06-27T11:34:05.313Z,30.99
2019-06-27T11:36:37.627Z,29.90
2019-06-27T11:39:10.044Z,29.15
2019-06-27T11:41:42.323Z,30.08
2019-06-27T11:44:14.511Z,29.75
2019-06-27T11:46:47.744Z,28.70
2019-06-27T11:49:19.996Z,27.97
2019-06-27T11:51:52.665Z,27.62
2019-06-27T11:54:28.264Z,27.51
2019-06-27T11:57:00.605Z,28.14
2019-06-27T11:59:34.453Z,28.35
2019-06-27T12:02:08.615Z,27.44
2019-06-27T12:04:41.108Z,27.59
2019-06-27T12:07:13.409Z,27.27
2019-06-27T12:09:46.012Z,26.76
2019-06-27T12:12:20.269Z,25.43
2019-06-27T12:14:56.381Z,26.19
2019-06-27T12:17:29.389Z,27.98
2019-06-27T12:20:02.635Z,27.28
2019-06-27T12:22:35.108Z,27.07
2019-06-27T12:25:28.505Z,26.63
2019-06-27T12:28:28.033Z,26.68
2019-06-27T12:31:10.334Z,27.30
2019-06-27T12:34:05.568Z,27.39
2019-06-27T12:36:39.449Z,26.32
2019-06-27T12:39:12.382Z,26.36
2019-06-27T12:41:44.747Z,26.49
2019-06-27T12:44:17.224Z,25.29
2019-06-27T12:46:50.422Z,26.79
2019-06-27T12:49:36.947Z,26.40
2019-06-27T12:52:17.472Z,24.98
2019-06-27T12:54:52.371Z,26.00
2019-06-27T12:57:25.044Z,26.47
2019-06-27T12:59:57.652Z,24.86
2019-06-27T13:02:29.962Z,25.40
2019-06-27T13:05:02.439Z,25.94
2019-06-27T13:07:34.670Z,26.21
2019-06-27T13:10:07.160Z,25.68
2019-06-27T13:12:40.505Z,25.30
2019-06-27T13:15:15.223Z,24.75
2019-06-27T13:17:48.581Z,24.15
2019-06-27T13:20:21.205Z,24.18
2019-06-27T13:22:53.462Z,23.91
2019-06-27T13:25:25.851Z,23.29
2019-06-27T13:27:58.128Z,24.28
2019-06-27T13:30:30.483Z,23.48
2019-06-27T13:33:03.145Z,23.19
2019-06-27T13:35:35.968Z,23.88
2019-06-27T13:38:09.465Z,23.58
2019-06-27T13:40:41.860Z,23.13
2019-06-27T13:43:14.031Z,24.29
2019-06-27T13:45:46.508Z,22.04
2019-06-27T13:48:18.770Z,21.82
2019-06-27T13:50:51.090Z,21.58
2019-06-27T13:53:23.349Z,22.93
2019-06-27T13:55:55.632Z,22.96
2019-06-27T13:58:27.838Z,21.67
2019-06-27T14:01:00.311Z,21.38
2019-06-27T14:03:48.315Z,21.92
2019-06-27T14:06:21.825Z,22.27
2019-06-27T14:08:54.189Z,22.21
2019-06-27T14:11:26.467Z,22.09
2019-06-27T14:13:58.745Z,22.15
2019-06-27T14:16:31.825Z,22.49
2019-06-27T14:19:04.532Z,22.97
2019-06-27T14:21:37.714Z,22.54
2019-06-27T14:24:09.980Z,22.73
2019-06-27T14:26:42.315Z,23.17
2019-06-27T14:29:14.596Z,22.69
2019-06-27T14:31:46.890Z,22.40
2019-06-27T14:34:19.179Z,21.65
2019-06-27T14:36:54.295Z,23.07
2019-06-27T14:39:27.298Z,23.47
2019-06-27T14:42:00.595Z,24.00
2019-06-27T14:44:32.981Z,24.22
2019-06-27T14:47:05.337Z,23.60
2019-06-27T14:49:37.731Z,24.32
2019-06-27T14:52:10.180Z,24.00
2019-06-27T14:54:46.278Z,24.18
2019-06-27T14:57:19.599Z,25.21
2019-06-27T14:59:52.086Z,24.39
2019-06-27T15:02:24.406Z,25.08
2019-06-27T15:04:56.748Z,24.68
2019-06-27T15:07:32.041Z,24.53
2019-06-27T15:10:12.952Z,25.31
2019-06-27T15:12:56.628Z,25.34
2019-06-27T15:15:30.000Z,25.16
2019-06-27T15:18:02.508Z,25.19
2019-06-27T15:20:35.695Z,25.19
2019-06-27T15:23:08.104Z,24.92
2019-06-27T15:25:42.235Z,25.14
2019-06-27T15:28:14.611Z,25.07
2019-06-27T15:30:47.870Z,25.60
2019-06-27T15:33:20.301Z,25.55
2019-06-27T15:35:52.986Z,25.40
2019-06-27T15:38:25.756Z,25.94
2019-06-27T15:40:58.545Z,24.46
2019-06-27T15:43:31.105Z,24.90
2019-06-27T15:46:03.612Z,25.08
2019-06-27T15:48:36.051Z,24.94
2019-06-27T15:51:09.220Z,25.13
2019-06-27T15:53:41.698Z,25.76
2019-06-27T15:56:14.058Z,25.46
2019-06-27T15:58:46.434Z,26.46
2019-06-27T16:01:18.722Z,25.68
2019-06-27T16:03:51.068Z,26.69
2019-06-27T16:06:23.536Z,26.75
2019-06-27T16:08:56.208Z,26.74
2019-06-27T16:11:29.337Z,27.12
2019-06-27T16:14:01.645Z,27.81
2019-06-27T16:16:33.956Z,27.37
2019-06-27T16:19:06.257Z,27.51
2019-06-27T16:21:38.495Z,27.69
2019-06-27T16:24:10.748Z,28.22
2019-06-27T16:26:42.995Z,27.33
2019-06-27T16:29:15.275Z,27.59
2019-06-27T16:31:50.216Z,28.02
2019-06-27T16:34:22.745Z,28.25
2019-06-27T16:36:55.216Z,27.66
2019-06-27T16:39:27.532Z,28.22
2019-06-27T16:41:59.823Z,27.69
2019-06-27T16:44:35.599Z,27.50
2019-06-27T16:47:08.332Z,28.90
2019-06-27T16:49:40.721Z,28.44
2019-06-27T16:52:13.986Z,29.16
2019-06-27T16:54:46.555Z,29.32
2019-06-27T16:57:18.807Z,29.28
2019-06-27T16:59:51.841Z,29.53
2019-06-27T17:02:24.091Z,29.99
2019-06-27T17:04:56.524Z,29.98
2019-06-27T17:07:28.794Z,29.76
2019-06-27T17:10:02.077Z,28.85
2019-06-27T17:12:34.292Z,29.04
2019-06-27T17:15:08.988Z,28.78
2019-06-27T17:17:41.833Z,29.17
2019-06-27T17:20:15.779Z,29.13
2019-06-27T17:22:48.146Z,29.69
2019-06-27T17:25:20.468Z,30.01
2019-06-27T17:27:52.775Z,30.25
2019-06-27T17:30:25.167Z,30.18
2019-06-27T17:32:58.167Z,30.56
2019-06-27T17:35:30.529Z,29.80
2019-06-27T17:38:02.842Z,30.38
2019-06-27T17:40:35.165Z,30.44
2019-06-27T17:43:07.522Z,30.85
2019-06-27T17:45:39.821Z,30.72
2019-06-27T17:48:12.063Z,33.65
2019-06-27T17:50:44.295Z,31.08
2019-06-27T17:53:16.618Z,30.82
2019-06-27T17:55:48.955Z,31.35
2019-06-27T17:58:21.348Z,32.16
2019-06-27T18:00:53.940Z,32.55
2019-06-27T18:03:26.384Z,32.97
2019-06-27T18:05:59.821Z,32.70
2019-06-27T18:08:32.230Z,32.61
2019-06-27T18:11:05.080Z,32.73
2019-06-27T18:13:37.352Z,32.90
2019-06-27T18:16:09.719Z,33.44
2019-06-27T18:18:42.097Z,33.98
2019-06-27T18:21:14.352Z,34.56
2019-06-27T18:23:46.681Z,34.73
2019-06-27T18:26:19.130Z,34.94
2019-06-27T18:28:53.906Z,34.77
2019-06-27T18:31:26.270Z,35.06
2019-06-27T18:33:58.670Z,35.21
2019-06-27T18:36:30.941Z,35.68
2019-06-27T18:39:03.514Z,35.95
2019-06-27T18:41:35.805Z,36.35
2019-06-27T18:44:08.173Z,36.75
2019-06-27T18:46:40.574Z,37.19
2019-06-27T18:49:13.486Z,37.64
2019-06-27T18:51:45.900Z,38.15
2019-06-27T18:54:18.208Z,38.48
2019-06-27T18:56:50.556Z,38.93
2019-06-27T18:59:22.924Z,39.16
2019-06-27T19:01:55.345Z,39.40
2019-06-27T19:04:28.963Z,39.96
2019-06-27T19:07:01.277Z,40.54
2019-06-27T19:09:33.594Z,40.74
2019-06-27T19:12:06.618Z,40.84
2019-06-27T19:14:38.956Z,41.08
2019-06-27T19:17:11.291Z,40.65
2019-06-27T19:19:48.715Z,40.71
2019-06-27T19:22:44.443Z,41.29
2019-06-27T19:25:33.332Z,41.84
2019-06-27T19:28:05.834Z,42.21
2019-06-27T19:30:38.195Z,42.56
2019-06-27T19:33:10.705Z,42.89
2019-06-27T19:35:42.990Z,43.18
2019-06-27T19:38:15.294Z,43.46
2019-06-27T19:40:47.586Z,43.70
2019-06-27T19:43:27.537Z,43.92
2019-06-27T19:46:01.060Z,44.09
2019-06-27T19:48:33.489Z,44.43
2019-06-27T19:51:06.394Z,44.70
2019-06-27T19:53:39.665Z,44.74
2019-06-27T19:56:11.955Z,44.86
2019-06-27T19:58:44.287Z,44.96
2019-06-27T20:01:18.189Z,45.00
2019-06-27T20:03:51.953Z,45.14
2019-06-27T20:06:25.758Z,45.17
2019-06-27T20:08:59.584Z,45.37
2019-06-27T20:11:32.844Z,45.56
2019-06-27T20:14:05.286Z,45.58
2019-06-27T20:16:38.249Z,45.83
2019-06-27T20:19:12.809Z,45.80
2019-06-27T20:21:45.248Z,46.07
2019-06-27T20:26:12.433Z,46.34
2019-06-27T20:28:44.800Z,46.61
2019-06-27T20:31:18.721Z,47.12
2019-06-27T20:33:53.213Z,47.62
2019-06-27T20:36:25.690Z,48.07
2019-06-27T20:38:58.061Z,48.41
2019-06-27T20:41:31.073Z,48.75
2019-06-27T20:44:03.389Z,48.98
2019-06-27T20:46:35.716Z,49.27
2019-06-27T20:49:09.720Z,49.50
2019-06-27T20:51:41.971Z,49.65
2019-06-27T20:54:14.244Z,49.68
2019-06-27T20:56:46.596Z,49.93
2019-06-27T20:59:18.837Z,49.80
2019-06-27T21:01:51.152Z,49.81
2019-06-27T21:04:23.385Z,49.95
2019-06-27T21:06:55.727Z,49.96
2019-06-27T21:09:28.009Z,50.18
2019-06-27T21:12:00.272Z,50.12
2019-06-27T21:14:33.223Z,50.26
2019-06-27T21:17:05.606Z,50.20
2019-06-27T21:19:38.012Z,50.32
2019-06-27T21:22:10.303Z,50.52
2019-06-27T21:24:42.547Z,50.55
2019-06-27T21:27:14.792Z,50.43
2019-06-27T21:29:47.126Z,50.62
2019-06-27T21:32:30.903Z,50.37
2019-06-27T21:35:04.471Z,49.94
2019-06-27T21:37:36.697Z,49.84
2019-06-27T21:40:08.919Z,50.16
2019-06-27T21:42:41.154Z,50.22
2019-06-27T21:45:14.928Z,50.22
2019-06-27T21:47:47.227Z,49.93
2019-06-27T21:50:19.521Z,49.68
2019-06-27T21:52:51.746Z,49.69
2019-06-27T21:55:23.977Z,49.47
2019-06-27T21:57:59.717Z,49.43
2019-06-27T22:00:36.948Z,49.60
2019-06-27T22:03:09.189Z,49.60
2019-06-27T22:05:41.544Z,49.71
2019-06-27T22:08:13.535Z,49.76
2019-06-27T22:10:45.817Z,50.02
2019-06-27T22:13:18.049Z,50.13
2019-06-27T22:15:50.339Z,50.08
2019-06-27T22:18:22.587Z,49.84
2019-06-27T22:20:54.892Z,49.76
2019-06-27T22:23:27.212Z,49.79
2019-06-27T22:25:59.484Z,49.74
2019-06-27T22:28:31.800Z,49.81
2019-06-27T22:31:04.100Z,49.74
2019-06-27T22:33:36.277Z,50.10
2019-06-27T22:36:08.476Z,50.31
2019-06-27T22:38:46.208Z,50.61
2019-06-27T22:41:23.864Z,50.83
2019-06-27T22:44:01.677Z,50.83
2019-06-27T22:46:39.523Z,51.08
2019-06-27T22:49:11.487Z,51.34
2019-06-27T22:52:03.065Z,51.48
2019-06-27T22:54:38.244Z,51.88
2019-06-27T22:57:10.447Z,52.21
2019-06-27T22:59:42.633Z,52.33
2019-06-27T23:02:14.846Z,52.62
2019-06-27T23:04:47.147Z,52.98
2019-06-27T23:07:19.365Z,52.92
2019-06-27T23:09:56.789Z,53.24
2019-06-27T23:12:29.871Z,53.60
2019-06-27T23:15:03.878Z,53.72
2019-06-27T23:17:36.107Z,54.00
2019-06-27T23:20:09.315Z,54.25
2019-06-27T23:22:41.546Z,54.41
2019-06-27T23:25:13.813Z,54.65
2019-06-27T23:27:46.399Z,54.57
2019-06-27T23:30:17.906Z,54.80
2019-06-27T23:32:50.144Z,55.11
2019-06-27T23:35:22.379Z,55.29
2019-06-27T23:37:54.611Z,55.21
2019-06-27T23:40:26.944Z,55.28
2019-06-27T23:42:59.196Z,55.29
2019-06-27T23:45:32.648Z,55.55
2019-06-27T23:48:04.835Z,55.47
2019-06-27T23:50:37.248Z,55.65
2019-06-27T23:53:09.433Z,55.64
2019-06-27T23:55:41.654Z,55.65
2019-06-27T23:58:14.525Z,55.50
